Time;durP1;ratioP1;P1;durP2;ratioP2;P2;SDS_P1;SDS_P2;PMS_P1;PMS_P2;Temp;Humidity;BMP_temperature;BMP_pressure;BME280_temperature;BME280_humidity;BME280_pressure;Samples;Min_cycle;Max_cycle;Signal;HPM_P1;HPM_P2
2024/01/07 00:01:38;;;;;;;3.42;1.60;;;;;;;-2.11;100.00;102015.44;4989012;28;20030;-75
2024/01/07 00:04:04;;;;;;;2.97;1.90;;;;;;;-2.12;100.00;102027.75;4986753;28;20487;-75
2024/01/07 00:06:29;;;;;;;2.95;1.30;;;;;;;-2.10;100.00;102036.31;4968099;28;20069;-75
2024/01/07 00:08:55;;;;;;;4.30;1.60;;;;;;;-2.11;100.00;102031.19;4986831;28;20048;-75
2024/01/07 00:11:21;;;;;;;2.72;1.27;;;;;;;-2.13;100.00;102031.34;4984172;28;21001;-75
2024/01/07 00:13:46;;;;;;;3.88;1.63;;;;;;;-2.14;100.00;102040.19;4982329;28;20476;-75
2024/01/07 00:16:12;;;;;;;3.55;1.48;;;;;;;-2.15;100.00;102037.75;4956412;28;20041;-75
2024/01/07 00:18:38;;;;;;;2.75;1.35;;;;;;;-2.17;100.00;102051.00;4983832;28;20034;-74
2024/01/07 00:21:04;;;;;;;7.55;2.13;;;;;;;-2.19;100.00;102042.47;4966487;28;20134;-74
2024/01/07 00:23:30;;;;;;;2.30;1.08;;;;;;;-2.22;100.00;102045.41;5000986;28;20047;-73
2024/01/07 00:25:56;;;;;;;2.38;1.42;;;;;;;-2.23;100.00;102046.38;4982544;28;20105;-75
2024/01/07 00:28:22;;;;;;;3.50;1.42;;;;;;;-2.25;100.00;102048.31;4996397;28;20030;-74
2024/01/07 00:30:47;;;;;;;3.65;1.70;;;;;;;-2.26;100.00;102051.94;5000703;28;20047;-74
2024/01/07 00:33:13;;;;;;;3.45;1.77;;;;;;;-2.32;100.00;102053.34;4983882;28;20668;-73
2024/01/07 00:35:38;;;;;;;4.00;1.40;;;;;;;-2.36;100.00;102053.84;4987499;28;20041;-74
2024/01/07 00:38:04;;;;;;;3.65;1.90;;;;;;;-2.37;100.00;102060.88;4971552;28;20046;-74
2024/01/07 00:40:29;;;;;;;3.25;1.60;;;;;;;-2.37;100.00;102065.28;4984866;28;20060;-74
2024/01/07 00:42:55;;;;;;;5.53;1.90;;;;;;;-2.44;100.00;102056.38;4986812;28;20432;-74
2024/01/07 00:45:21;;;;;;;4.25;1.17;;;;;;;-2.44;100.00;102053.75;4954640;28;20164;-75
2024/01/07 00:47:47;;;;;;;6.55;1.40;;;;;;;-2.45;100.00;102052.91;4968313;28;20046;-71
2024/01/07 00:50:13;;;;;;;4.18;1.67;;;;;;;-2.48;100.00;102064.56;4968200;28;20038;-73
2024/01/07 00:52:38;;;;;;;3.15;1.25;;;;;;;-2.52;100.00;102063.19;4972151;28;20037;-74
2024/01/07 00:55:06;;;;;;;3.25;1.90;;;;;;;-2.55;100.00;102074.00;4979684;28;20038;-74
2024/01/07 00:57:32;;;;;;;2.40;1.00;;;;;;;-2.56;100.00;102077.59;5005456;28;20347;-73
2024/01/07 00:59:59;;;;;;;3.33;1.40;;;;;;;-2.58;100.00;102090.03;5003564;28;20076;-76
2024/01/07 01:02:25;;;;;;;3.20;1.38;;;;;;;-2.57;100.00;102086.47;4954233;28;20037;-74
2024/01/07 01:04:51;;;;;;;5.68;1.60;;;;;;;-2.61;100.00;102085.09;4968897;28;20033;-73
2024/01/07 01:07:16;;;;;;;2.88;1.92;;;;;;;-2.63;100.00;102084.44;4986570;28;20053;-74
2024/01/07 01:09:42;;;;;;;3.05;1.60;;;;;;;-2.67;100.00;102092.75;4967945;28;20124;-74
2024/01/07 01:12:08;;;;;;;4.47;2.03;;;;;;;-2.70;100.00;102101.75;4987517;28;20080;-75
2024/01/07 01:14:34;;;;;;;3.35;1.20;;;;;;;-2.69;100.00;102102.56;4993918;28;20042;-74
2024/01/07 01:17:00;;;;;;;;;;;;;;;-2.75;100.00;102109.22;4963221;28;20251;-73
2024/01/07 01:19:26;;;;;;;4.20;1.80;;;;;;;-2.76;100.00;102115.44;4972137;28;19917;-74
2024/01/07 01:21:51;;;;;;;2.80;1.40;;;;;;;-2.76;100.00;102118.06;5000055;28;20554;-74
2024/01/07 01:24:17;;;;;;;5.43;2.10;;;;;;;-2.77;100.00;102116.41;4980989;28;20046;-74
2024/01/07 01:26:43;;;;;;;3.33;1.58;;;;;;;-2.84;100.00;102116.19;4952146;28;20842;-74
2024/01/07 01:29:10;;;;;;;4.55;1.73;;;;;;;-2.85;100.00;102121.56;4969456;28;20507;-74
2024/01/07 01:31:36;;;;;;;3.47;1.40;;;;;;;-2.88;100.00;102116.63;4961482;28;20036;-74
2024/01/07 01:34:01;;;;;;;3.30;1.40;;;;;;;-2.90;100.00;102134.31;4960777;28;20682;-74
2024/01/07 01:36:27;;;;;;;2.65;1.48;;;;;;;-2.93;100.00;102134.56;4969415;28;21689;-75
2024/01/07 01:38:53;;;;;;;4.15;1.55;;;;;;;-2.97;100.00;102130.63;4964332;28;20063;-73
2024/01/07 01:41:18;;;;;;;4.43;2.03;;;;;;;-3.00;100.00;102133.50;4983294;28;20537;-73
2024/01/07 01:43:44;;;;;;;2.65;1.58;;;;;;;-3.03;100.00;102139.88;4948136;28;20033;-75
2024/01/07 01:46:10;;;;;;;3.80;1.90;;;;;;;-3.06;100.00;102148.84;4981684;28;20115;-75
2024/01/07 01:48:37;;;;;;;3.50;1.50;;;;;;;-3.10;100.00;102144.88;4966112;28;20034;-75
2024/01/07 01:51:03;;;;;;;2.55;1.52;;;;;;;-3.12;100.00;102148.59;4981067;28;20034;-75
2024/01/07 01:53:28;;;;;;;3.60;1.52;;;;;;;-3.15;100.00;102152.34;4984349;28;20037;-74
2024/01/07 01:55:57;;;;;;;4.97;1.90;;;;;;;-3.15;100.00;102148.91;4991453;28;20041;-75
2024/01/07 01:58:23;;;;;;;2.75;1.25;;;;;;;-3.13;100.00;102162.69;4972860;28;20783;-74
2024/01/07 02:00:50;;;;;;;4.07;1.70;;;;;;;-3.12;100.00;102154.66;5003199;28;20029;-75
2024/01/07 02:03:17;;;;;;;3.15;1.85;;;;;;;-3.06;100.00;102163.75;4991376;28;20045;-75
2024/01/07 02:05:43;;;;;;;4.68;1.75;;;;;;;-3.04;100.00;102170.50;4999955;28;20042;-75
2024/01/07 02:08:10;;;;;;;2.83;2.05;;;;;;;-2.98;100.00;102171.75;4967467;28;20033;-73
2024/01/07 02:10:36;;;;;;;3.40;1.50;;;;;;;-3.00;100.00;102173.66;4972987;28;20041;-74
2024/01/07 02:13:05;;;;;;;2.95;1.77;;;;;;;-2.96;100.00;102175.03;4985913;28;20041;-74
2024/01/07 02:15:33;;;;;;;2.95;1.23;;;;;;;-2.96;100.00;102174.22;4984797;28;20042;-74
2024/01/07 02:17:59;;;;;;;6.18;1.60;;;;;;;-2.95;100.00;102175.84;4974623;28;20038;-74
2024/01/07 02:20:25;;;;;;;4.38;1.58;;;;;;;-2.94;100.00;102177.50;4970664;28;20110;-74
2024/01/07 02:22:51;;;;;;;2.95;1.55;;;;;;;-2.96;100.00;102175.03;4986477;28;20048;-74
2024/01/07 02:25:17;;;;;;;3.65;2.08;;;;;;;-2.94;100.00;102182.75;4952398;28;20058;-73
2024/01/07 02:27:43;;;;;;;2.88;1.45;;;;;;;-2.94;100.00;102187.97;4984788;28;20040;-74
2024/01/07 02:30:09;;;;;;;3.60;1.63;;;;;;;-2.95;100.00;102186.34;4968117;28;20057;-74
2024/01/07 02:32:35;;;;;;;3.35;1.40;;;;;;;-2.95;100.00;102183.72;4973223;28;20043;-73
2024/01/07 02:35:02;;;;;;;2.67;1.48;;;;;;;-2.97;100.00;102183.88;4967639;28;20164;-76
2024/01/07 02:37:27;;;;;;;2.70;1.60;;;;;;;-2.99;100.00;102190.22;4964307;28;20044;-75
2024/01/07 02:39:53;;;;;;;3.15;1.40;;;;;;;-2.95;100.00;102196.81;5002820;28;20034;-74
2024/01/07 02:42:18;;;;;;;5.07;2.00;;;;;;;-2.96;100.00;102197.78;4967479;28;20092;-77
2024/01/07 02:44:44;;;;;;;5.55;1.58;;;;;;;-2.95;100.00;102191.56;4951047;28;20606;-75
2024/01/07 02:47:09;;;;;;;3.90;1.67;;;;;;;-2.93;100.00;102195.69;4983913;28;20084;-76
2024/01/07 02:49:36;;;;;;;3.03;1.50;;;;;;;-2.92;100.00;102201.75;4985952;28;20060;-77
2024/01/07 02:52:02;;;;;;;4.43;1.40;;;;;;;-2.87;100.00;102208.22;5009986;28;20033;-75
2024/01/07 02:54:28;;;;;;;2.90;1.58;;;;;;;-2.87;100.00;102208.22;5009597;28;20045;-73
2024/01/07 02:56:54;;;;;;;3.72;1.25;;;;;;;-2.85;100.00;102206.28;4971324;28;20046;-74
2024/01/07 02:59:20;;;;;;;3.85;1.90;;;;;;;-2.84;100.00;102204.50;4990551;28;20499;-72
2024/01/07 03:01:46;;;;;;;3.22;1.50;;;;;;;-2.83;100.00;102221.88;4987861;28;20057;-74
2024/01/07 03:04:15;;;;;;;3.85;2.08;;;;;;;-2.82;100.00;102207.81;5008912;28;20042;-75
2024/01/07 03:06:42;;;;;;;3.55;1.48;;;;;;;-2.79;100.00;102208.31;5005598;28;20038;-73
2024/01/07 03:09:10;;;;;;;4.20;1.45;;;;;;;-2.77;100.00;102208.19;4996596;28;20049;-74
2024/01/07 03:11:41;;;;;;;4.57;1.50;;;;;;;-2.72;100.00;102207.72;4993202;28;20083;-75
2024/01/07 03:14:07;;;;;;;2.28;1.35;;;;;;;-2.70;100.00;102217.13;4988783;28;20115;-75
2024/01/07 03:16:32;;;;;;;2.67;1.48;;;;;;;-2.66;100.00;102222.88;4955494;28;20764;-75
2024/01/07 03:18:59;;;;;;;4.50;1.50;;;;;;;-2.65;100.00;102222.72;4968701;28;20113;-74
2024/01/07 03:21:25;;;;;;;2.90;1.45;;;;;;;-2.64;100.00;102226.19;4987844;28;20033;-74
2024/01/07 03:23:51;;;;;;;7.90;1.60;;;;;;;-2.64;100.00;102219.16;5005999;28;20510;-75
2024/01/07 03:26:18;;;;;;;2.65;1.67;;;;;;;-2.62;100.00;102227.69;4985781;28;20051;-74
2024/01/07 03:28:44;;;;;;;4.07;1.80;;;;;;;-2.59;100.00;102231.81;4970904;28;20055;-74
2024/01/07 03:31:12;;;;;;;3.72;1.27;;;;;;;-2.58;100.00;102226.41;4987588;28;20562;-75
2024/01/07 03:33:40;;;;;;;2.70;1.42;;;;;;;-2.55;100.00;102230.56;4972119;28;20116;-74
2024/01/07 03:36:08;;;;;;;3.40;1.48;;;;;;;-2.53;100.00;102239.09;4981704;28;20057;-73
2024/01/07 03:38:35;;;;;;;3.30;1.38;;;;;;;-2.53;100.00;102236.47;4967078;28;20038;-74
2024/01/07 03:41:00;;;;;;;3.25;1.42;;;;;;;-2.49;100.00;102236.06;4965286;28;20037;-73
2024/01/07 03:43:26;;;;;;;2.92;1.60;;;;;;;-2.49;100.00;102240.47;4983194;28;20054;-74
2024/01/07 03:45:52;;;;;;;3.15;1.95;;;;;;;-2.47;100.00;102243.78;4981423;28;20180;-73
2024/01/07 03:48:17;;;;;;;4.07;1.88;;;;;;;-2.47;100.00;102249.84;4987920;28;20091;-73
2024/01/07 03:50:43;;;;;;;4.50;1.30;;;;;;;-2.44;100.00;102247.88;4976791;28;20088;-74
2024/01/07 03:53:10;;;;;;;3.20;1.40;;;;;;;-2.44;100.00;102253.13;4988805;28;20037;-73
2024/01/07 03:55:35;;;;;;;3.15;1.40;;;;;;;-2.44;100.00;102253.13;4979055;28;20494;-74
2024/01/07 03:58:01;;;;;;;2.60;1.40;;;;;;;-2.41;100.00;102255.47;4971216;28;20049;-73
2024/01/07 04:00:27;;;;;;;3.45;1.60;;;;;;;-2.40;100.00;102262.38;5010992;28;20064;-73
2024/01/07 04:02:53;;;;;;;5.47;1.58;;;;;;;-2.39;100.00;102261.41;4973195;28;20902;-74
2024/01/07 04:05:18;;;;;;;4.97;1.80;;;;;;;-2.37;100.00;102259.44;4974736;28;20033;-73
2024/01/07 04:07:44;;;;;;;3.28;1.40;;;;;;;-2.36;100.00;102266.38;4990795;28;20030;-73
2024/01/07 04:10:10;;;;;;;3.53;1.80;;;;;;;-2.34;100.00;102270.47;4956083;28;20076;-73
2024/01/07 04:12:36;;;;;;;3.28;1.33;;;;;;;-2.34;100.00;102269.66;4986946;28;20099;-74
2024/01/07 04:15:02;;;;;;;3.47;1.20;;;;;;;-2.32;100.00;102283.44;4974033;28;20041;-73
2024/01/07 04:17:28;;;;;;;3.40;1.73;;;;;;;-2.31;100.00;102283.28;5009712;28;20570;-73
2024/01/07 04:19:54;;;;;;;3.15;1.40;;;;;;;-2.30;100.00;102281.53;4985837;28;20038;-74
2024/01/07 04:22:20;;;;;;;6.45;1.88;;;;;;;-2.28;100.00;102290.06;4957176;28;20049;-74
2024/01/07 04:24:47;;;;;;;2.70;1.35;;;;;;;-2.25;100.00;102284.50;4958307;28;20041;-74
2024/01/07 04:27:12;;;;;;;;;;;;;;;-2.24;100.00;102299.28;5005455;28;20491;-74
2024/01/07 04:29:38;;;;;;;3.35;1.35;;;;;;;-2.24;100.00;102300.09;4972957;28;19917;-73
2024/01/07 04:32:04;;;;;;;2.75;1.20;;;;;;;-2.22;100.00;102295.56;4989216;28;20040;-73
2024/01/07 04:34:29;;;;;;;3.75;1.52;;;;;;;-2.18;100.00;102305.75;5001925;28;20038;-73
2024/01/07 04:36:55;;;;;;;5.30;1.48;;;;;;;-2.18;100.00;102303.94;4966235;28;20033;-74
2024/01/07 04:39:21;;;;;;;3.38;1.83;;;;;;;-2.18;100.00;102308.38;4987492;28;20395;-74
2024/01/07 04:41:47;;;;;;;3.72;1.30;;;;;;;-2.17;100.00;102308.22;5009010;28;20045;-74
2024/01/07 04:44:13;;;;;;;3.55;1.50;;;;;;;-2.17;100.00;102297.72;5012102;28;20033;-76
2024/01/07 04:46:39;;;;;;;4.85;1.30;;;;;;;-2.16;100.00;102304.63;4974623;28;20099;-74
2024/01/07 04:49:06;;;;;;;2.08;1.08;;;;;;;-2.13;100.00;102298.25;5003381;28;20143;-74
2024/01/07 04:51:32;;;;;;;;;;;;;;;-2.16;100.00;102307.25;4999644;28;20054;-74
2024/01/07 04:53:58;;;;;;;6.00;1.33;;;;;;;-2.14;100.00;102294.81;4996962;28;19921;-74
2024/01/07 04:56:24;;;;;;;4.15;1.67;;;;;;;-2.14;100.00;102304.50;4990674;28;20042;-74
2024/01/07 04:58:49;;;;;;;4.78;1.30;;;;;;;-2.14;100.00;102305.31;4975066;28;20128;-75
2024/01/07 05:01:15;;;;;;;3.65;1.50;;;;;;;-2.13;100.00;102306.94;4947087;28;20041;-74
2024/01/07 05:03:40;;;;;;;3.78;1.20;;;;;;;-2.11;100.00;102317.31;4988406;28;20085;-75
2024/01/07 05:06:09;;;;;;;4.40;1.27;;;;;;;-2.10;100.00;102313.69;4990336;28;20038;-74
2024/01/07 05:08:40;;;;;;;2.22;1.08;;;;;;;-2.08;100.00;102320.47;4988152;28;20029;-73
2024/01/07 05:11:07;;;;;;;4.90;1.40;;;;;;;-2.06;100.00;102320.31;4972969;28;20056;-74
2024/01/07 05:13:34;;;;;;;4.70;1.83;;;;;;;-2.05;100.00;102316.72;4976846;28;20126;-75
2024/01/07 05:16:00;;;;;;;3.05;1.67;;;;;;;-2.05;100.00;102317.53;4987896;28;20045;-72
2024/01/07 05:18:26;;;;;;;3.10;1.80;;;;;;;-2.02;100.00;102326.94;4981410;28;20613;-72
2024/01/07 05:20:52;;;;;;;3.25;1.30;;;;;;;-2.02;100.00;102330.38;4971244;28;20075;-73
2024/01/07 05:23:17;;;;;;;2.50;1.17;;;;;;;-2.01;100.00;102328.59;4972295;28;20045;-73
2024/01/07 05:25:44;;;;;;;3.70;1.30;;;;;;;-1.99;100.00;102334.50;4972832;28;20065;-76
2024/01/07 05:28:11;;;;;;;3.17;1.42;;;;;;;-1.97;100.00;102343.88;4973270;28;20034;-75
2024/01/07 05:30:36;;;;;;;;;;;;;;;-1.97;100.00;102341.25;4974741;28;20033;-75
2024/01/07 05:33:02;;;;;;;3.35;1.13;;;;;;;-1.97;100.00;102343.88;5005576;28;19917;-74
2024/01/07 05:35:28;;;;;;;2.58;1.48;;;;;;;-1.96;100.00;102340.28;5005660;28;20056;-74
2024/01/07 05:37:55;;;;;;;3.75;1.55;;;;;;;-1.94;100.00;102340.97;4967934;28;20507;-75
2024/01/07 05:40:21;;;;;;;6.40;1.88;;;;;;;-1.93;100.00;102347.88;4992568;28;20076;-75
2024/01/07 05:42:47;;;;;;;4.65;1.52;;;;;;;-1.88;100.00;102349.22;4977505;28;20150;-74
2024/01/07 05:45:13;;;;;;;3.15;1.48;;;;;;;-1.85;100.00;102355.00;4992216;28;20036;-74
2024/01/07 05:47:40;;;;;;;3.92;1.40;;;;;;;-1.83;100.00;102358.31;4959371;28;20495;-73
2024/01/07 05:50:07;;;;;;;3.08;1.50;;;;;;;-1.83;100.00;102358.31;4988927;28;20033;-73
2024/01/07 05:52:32;;;;;;;2.65;1.30;;;;;;;-1.81;100.00;102360.78;4997253;28;20038;-73
2024/01/07 05:54:58;;;;;;;4.75;1.25;;;;;;;-1.80;100.00;102367.69;4995152;28;20107;-74
2024/01/07 05:57:24;;;;;;;4.68;1.90;;;;;;;-1.77;100.00;102372.63;4974455;28;20128;-74
2024/01/07 05:59:50;;;;;;;4.15;1.23;;;;;;;-1.77;100.00;102362.13;5007104;28;20029;-73
2024/01/07 06:02:17;;;;;;;3.95;2.05;;;;;;;-1.77;100.00;102367.38;4973676;28;20030;-74
2024/01/07 06:04:42;;;;;;;3.63;1.23;;;;;;;-1.75;100.00;102373.34;4975657;28;20053;-75
2024/01/07 06:07:08;;;;;;;5.05;1.23;;;;;;;-1.74;100.00;102369.72;4986610;28;20058;-73
2024/01/07 06:09:35;;;;;;;2.65;1.45;;;;;;;-1.73;100.00;102381.88;4972821;28;20505;-75
2024/01/07 06:12:01;;;;;;;2.42;1.38;;;;;;;-1.73;100.00;102381.88;4988272;28;20495;-75
2024/01/07 06:14:27;;;;;;;3.15;1.65;;;;;;;-1.70;100.00;102389.44;4985486;28;20034;-76
2024/01/07 06:16:52;;;;;;;2.78;1.20;;;;;;;-1.70;100.00;102389.44;4983500;28;20033;-74
2024/01/07 06:19:18;;;;;;;4.80;1.50;;;;;;;-1.72;100.00;102391.41;4968183;28;20045;-72
2024/01/07 06:21:45;;;;;;;3.90;2.38;;;;;;;-1.71;100.00;102393.06;4964627;28;20148;-75
2024/01/07 06:24:11;;;;;;;3.25;1.25;;;;;;;-1.71;100.00;102390.44;4988983;28;20115;-74
2024/01/07 06:26:37;;;;;;;4.93;1.73;;;;;;;-1.72;100.00;102386.16;5001471;28;20037;-72
2024/01/07 06:29:03;;;;;;;2.08;1.10;;;;;;;-1.72;100.00;102389.63;4970691;28;20036;-74
2024/01/07 06:31:29;;;;;;;2.42;1.70;;;;;;;-1.72;100.00;102394.03;5003255;28;20894;-73
2024/01/07 06:33:55;;;;;;;3.28;1.30;;;;;;;-1.72;100.00;102396.66;4976249;28;20056;-72
2024/01/07 06:36:22;;;;;;;3.03;1.13;;;;;;;-1.70;100.00;102399.97;4977651;28;20665;-75
2024/01/07 06:38:48;;;;;;;3.60;1.10;;;;;;;-1.70;100.00;102394.72;4969802;28;20733;-74
2024/01/07 06:41:14;;;;;;;2.40;1.17;;;;;;;-1.71;100.00;102393.06;4992140;28;20125;-75
2024/01/07 06:43:40;;;;;;;3.38;1.20;;;;;;;-1.72;100.00;102401.91;5012184;28;20065;-75
2024/01/07 06:46:06;;;;;;;2.65;1.10;;;;;;;-1.71;100.00;102408.81;5014780;28;20041;-73
2024/01/07 06:48:31;;;;;;;2.00;1.17;;;;;;;-1.77;100.00;102409.41;4988147;28;20408;-73
2024/01/07 06:50:57;;;;;;;2.47;1.05;;;;;;;-1.77;100.00;102414.66;4990274;28;20064;-74
2024/01/07 06:53:22;;;;;;;1.60;0.88;;;;;;;-1.79;100.00;102406.13;4983559;28;20124;-75
2024/01/07 06:55:48;;;;;;;4.22;1.45;;;;;;;-1.80;100.00;102405.28;4959228;28;20136;-74
2024/01/07 06:58:13;;;;;;;4.50;1.10;;;;;;;-1.77;100.00;102414.66;4990393;28;20038;-74
2024/01/07 07:00:39;;;;;;;2.28;1.17;;;;;;;-1.75;100.00;102424.06;4990456;28;20515;-74
2024/01/07 07:03:06;;;;;;;2.00;1.10;;;;;;;-1.74;100.00;102419.63;4969647;28;20128;-74
2024/01/07 07:05:32;;;;;;;2.70;1.10;;;;;;;-1.73;100.00;102429.16;4970082;28;20418;-74
2024/01/07 07:07:58;;;;;;;1.98;0.90;;;;;;;-1.74;100.00;102430.16;5006371;28;20022;-73
2024/01/07 07:10:24;;;;;;;4.93;0.90;;;;;;;-1.75;100.00;102449.50;5006922;28;20044;-73
2024/01/07 07:12:50;;;;;;;2.30;1.05;;;;;;;-1.80;100.00;102449.13;4966680;28;20033;-73
2024/01/07 07:15:17;;;;;;;1.85;0.80;;;;;;;-1.81;100.00;102452.72;4987779;28;20050;-73
2024/01/07 07:17:43;;;;;;;4.40;0.95;;;;;;;-1.85;100.00;102454.78;5008075;28;20111;-74
2024/01/07 07:20:10;;;;;;;2.85;1.20;;;;;;;-1.84;100.00;102453.00;4981091;28;20037;-74
2024/01/07 07:22:35;;;;;;;3.80;1.42;;;;;;;-1.82;100.00;102464.19;4986892;28;20060;-71
2024/01/07 07:25:02;;;;;;;2.63;1.27;;;;;;;-1.82;100.00;102465.03;5003736;28;20799;-73
2024/01/07 07:27:28;;;;;;;3.08;1.33;;;;;;;-1.82;100.00;102464.19;4986389;28;20026;-74
2024/01/07 07:29:54;;;;;;;2.55;0.90;;;;;;;-1.81;100.00;102481.59;4979331;28;20048;-72
2024/01/07 07:32:19;;;;;;;4.00;1.15;;;;;;;-1.82;100.00;102483.41;4997714;28;20041;-72
2024/01/07 07:34:46;;;;;;;2.35;1.25;;;;;;;-1.80;100.00;102480.63;5016284;28;20041;-73
2024/01/07 07:37:13;;;;;;;2.55;1.38;;;;;;;-1.79;100.00;102484.91;4963119;28;20044;-74
2024/01/07 07:39:39;;;;;;;2.67;1.42;;;;;;;-1.81;100.00;102482.44;4974440;28;20072;-73
2024/01/07 07:42:05;;;;;;;4.97;1.50;;;;;;;-1.81;100.00;102486.88;4993375;28;20442;-74
2024/01/07 07:44:32;;;;;;;4.78;1.65;;;;;;;-1.81;100.00;102492.13;4993743;28;20037;-75
2024/01/07 07:46:58;;;;;;;5.07;1.10;;;;;;;-1.83;100.00;102488.78;5014213;28;20040;-72
2024/01/07 07:49:24;;;;;;;2.83;1.70;;;;;;;-1.86;100.00;102504.84;4992978;28;20041;-76
2024/01/07 07:51:50;;;;;;;3.88;1.48;;;;;;;-1.89;100.00;102499.91;5010599;28;20038;-73
2024/01/07 07:54:17;;;;;;;4.13;1.60;;;;;;;-1.94;100.00;102518.69;4970125;28;20096;-75
2024/01/07 07:56:43;;;;;;;4.40;1.77;;;;;;;-1.97;100.00;102509.28;4974567;28;20392;-74
2024/01/07 07:59:08;;;;;;;3.80;1.42;;;;;;;-2.03;100.00;102514.28;4993920;28;20064;-75
2024/01/07 08:01:34;;;;;;;3.60;1.92;;;;;;;-2.09;100.00;102525.38;4992423;28;20088;-72
2024/01/07 08:04:02;;;;;;;2.53;1.55;;;;;;;-2.16;100.00;102514.63;4970029;28;20714;-74
2024/01/07 08:06:29;;;;;;;2.72;1.65;;;;;;;-2.23;100.00;102530.13;4987748;28;20042;-74
2024/01/07 08:08:54;;;;;;;3.40;2.00;;;;;;;-2.30;100.00;102521.16;4989509;28;20040;-74
2024/01/07 08:11:20;;;;;;;7.63;2.00;;;;;;;-2.34;100.00;102526.81;4971393;28;20038;-73
2024/01/07 08:13:45;;;;;;;3.63;1.83;;;;;;;-2.40;100.00;102537.88;4983460;28;20034;-74
2024/01/07 08:16:11;;;;;;;3.22;1.60;;;;;;;-2.47;100.00;102533.19;4986530;28;20042;-74
2024/01/07 08:18:37;;;;;;;7.47;2.20;;;;;;;-2.53;100.00;102543.41;4981968;28;20062;-75
2024/01/07 08:21:02;;;;;;;3.25;1.92;;;;;;;-2.58;100.00;102540.38;4985263;28;20033;-75
2024/01/07 08:23:28;;;;;;;3.47;1.92;;;;;;;-2.63;100.00;102546.03;4992393;28;20589;-74
2024/01/07 08:25:54;;;;;;;8.27;2.63;;;;;;;-2.64;100.00;102552.25;4982810;28;20037;-74
2024/01/07 08:28:20;;;;;;;5.15;2.13;;;;;;;-2.61;100.00;102551.97;4963933;28;20148;-74
2024/01/07 08:30:46;;;;;;;4.25;2.50;;;;;;;-2.57;100.00;102553.38;5012393;28;20498;-75
2024/01/07 08:33:12;;;;;;;5.75;2.55;;;;;;;-2.56;100.00;102559.44;5014362;28;20038;-75
2024/01/07 08:35:38;;;;;;;6.65;2.85;;;;;;;-2.52;100.00;102556.38;4974124;28;20099;-74
2024/01/07 08:38:04;;;;;;;6.63;2.90;;;;;;;-2.48;100.00;102552.53;4989823;28;20042;-74
2024/01/07 08:40:31;;;;;;;8.35;2.70;;;;;;;-2.44;100.00;102563.53;4990928;28;20049;-76
2024/01/07 08:42:56;;;;;;;6.95;2.83;;;;;;;-2.40;100.00;102567.56;4987017;28;20048;-75
2024/01/07 08:45:22;;;;;;;4.53;2.53;;;;;;;-2.34;100.00;102574.06;4974677;28;20411;-74
2024/01/07 08:47:48;;;;;;;4.28;2.45;;;;;;;-2.29;100.00;102575.28;4974013;28;20652;-74
2024/01/07 08:50:14;;;;;;;8.27;3.40;;;;;;;-2.22;100.00;102588.69;4988831;28;20030;-75
2024/01/07 08:52:40;;;;;;;7.35;2.75;;;;;;;-2.15;100.00;102587.16;5006127;28;20049;-74
2024/01/07 08:55:07;;;;;;;9.18;2.72;;;;;;;-2.07;100.00;102587.28;4992261;28;20041;-75
2024/01/07 08:57:33;;;;;;;5.10;2.35;;;;;;;-2.00;100.00;102585.72;5005342;28;20124;-74
2024/01/07 08:59:58;;;;;;;5.68;2.45;;;;;;;-1.96;100.00;102592.38;5008695;28;20120;-74
2024/01/07 09:02:25;;;;;;;4.45;2.13;;;;;;;-1.94;100.00;102594.84;4980641;28;20577;-73
2024/01/07 09:04:51;;;;;;;4.43;2.60;;;;;;;-1.94;100.00;102592.22;5003671;28;20064;-75
2024/01/07 09:07:19;;;;;;;6.45;2.22;;;;;;;-1.92;100.00;102593.72;4971644;28;20580;-74
2024/01/07 09:09:44;;;;;;;5.22;2.55;;;;;;;-1.91;100.00;102610.31;4989548;28;20060;-74
2024/01/07 09:12:10;;;;;;;3.63;2.10;;;;;;;-1.91;100.00;102602.44;4988050;28;20557;-75
2024/01/07 09:14:39;;;;;;;4.18;2.25;;;;;;;-1.92;100.00;102603.41;4971669;28;20042;-74
2024/01/07 09:17:05;;;;;;;5.15;2.28;;;;;;;-1.89;100.00;102610.19;4987015;28;20341;-74
2024/01/07 09:19:31;;;;;;;5.07;1.92;;;;;;;-1.89;100.00;102607.56;4982771;28;20909;-75
2024/01/07 09:21:56;;;;;;;4.68;2.10;;;;;;;-1.86;100.00;102613.34;4972867;28;20034;-74
2024/01/07 09:24:22;;;;;;;4.95;2.17;;;;;;;-1.83;100.00;102618.34;4987167;28;20073;-75
2024/01/07 09:26:48;;;;;;;4.10;2.72;;;;;;;-1.81;100.00;102613.75;4978511;28;20052;-74
2024/01/07 09:29:13;;;;;;;5.32;2.38;;;;;;;-1.80;100.00;102614.56;4944264;28;20036;-73
2024/01/07 09:31:39;;;;;;;6.75;2.70;;;;;;;-1.81;100.00;102621.63;5006212;28;20137;-74
2024/01/07 09:34:06;;;;;;;4.38;2.05;;;;;;;-1.78;100.00;102604.75;4976642;28;20040;-74
2024/01/07 09:36:33;;;;;;;3.92;2.05;;;;;;;-1.74;100.00;102620.09;4991007;28;20851;-75
2024/01/07 09:38:59;;;;;;;5.45;2.33;;;;;;;-1.71;100.00;102626.84;4989479;28;20029;-74
2024/01/07 09:41:25;;;;;;;5.78;2.25;;;;;;;-1.70;100.00;102637.22;4991571;28;20549;-75
2024/01/07 09:43:54;;;;;;;3.60;2.25;;;;;;;-1.69;100.00;102622.31;4992423;28;20037;-74
2024/01/07 09:46:20;;;;;;;5.40;2.42;;;;;;;-1.67;100.00;102633.50;4989396;28;20530;-74
2024/01/07 09:48:46;;;;;;;5.57;2.50;;;;;;;-1.70;100.00;102631.94;4993454;28;20038;-73
2024/01/07 09:51:12;;;;;;;3.60;1.92;;;;;;;-1.68;100.00;102632.66;4977232;28;20060;-73
2024/01/07 09:53:40;;;;;;;3.75;2.13;;;;;;;-1.64;100.00;102630.56;4980759;28;20041;-72
2024/01/07 09:56:24;;;;;;;5.00;2.10;;;;;;;-1.61;100.00;102632.91;4989528;28;20034;-73
2024/01/07 09:58:51;;;;;;;7.00;2.70;;;;;;;-1.54;100.00;102636.63;4971480;28;20080;-74
2024/01/07 10:01:20;;;;;;;4.00;2.17;;;;;;;-1.44;100.00;102632.16;4990394;28;20111;-74
2024/01/07 10:03:46;;;;;;;4.30;2.35;;;;;;;-1.36;100.00;102634.06;4992656;28;20026;-73
2024/01/07 10:06:12;;;;;;;5.13;1.90;;;;;;;-1.35;100.00;102635.75;4971944;28;20100;-74
2024/01/07 10:08:38;;;;;;;4.03;2.33;;;;;;;-1.37;100.00;102635.84;4953938;28;20052;-73
2024/01/07 10:11:04;;;;;;;3.75;1.92;;;;;;;-1.28;100.00;102630.72;4987714;28;20395;-73
2024/01/07 10:13:31;;;;;;;3.35;1.95;;;;;;;-1.18;100.00;102636.75;4964784;28;20030;-73
2024/01/07 10:15:56;;;;;;;4.35;2.40;;;;;;;-1.15;100.00;102634.69;4965879;28;20124;-73
2024/01/07 10:18:22;;;;;;;4.82;1.75;;;;;;;-1.01;100.00;102638.63;4990227;28;20092;-72
2024/01/07 10:20:49;;;;;;;4.10;2.20;;;;;;;-0.90;100.00;102633.13;4957685;28;20034;-72
2024/01/07 10:23:21;;;;;;;3.85;1.83;;;;;;;-0.82;100.00;102635.03;4971800;28;20517;-72
2024/01/07 10:25:47;;;;;;;5.30;2.50;;;;;;;-0.87;100.00;102635.50;4970248;28;20041;-71
2024/01/07 10:28:14;;;;;;;3.65;1.83;;;;;;;-0.87;100.00;102629.41;4978000;28;20033;-73
2024/01/07 10:30:40;;;;;;;5.75;1.98;;;;;;;-0.87;100.00;102630.22;4993252;28;20062;-73
2024/01/07 10:33:07;;;;;;;4.47;2.17;;;;;;;-0.85;100.00;102633.53;4992016;28;20072;-73
2024/01/07 10:35:34;;;;;;;4.93;1.98;;;;;;;-0.91;100.00;102628.84;5005276;28;20038;-73
2024/01/07 10:38:02;;;;;;;3.67;2.13;;;;;;;-0.85;100.00;102638.78;4991719;28;20041;-73
2024/01/07 10:40:31;;;;;;;6.25;2.20;;;;;;;-0.91;100.00;102636.75;4987934;28;20042;-76
2024/01/07 10:42:56;;;;;;;2.85;2.10;;;;;;;-0.91;100.00;102633.28;4987935;28;20041;-73
2024/01/07 10:45:22;;;;;;;5.30;2.00;;;;;;;-0.96;100.00;102641.59;5004855;28;20048;-72
2024/01/07 10:47:51;;;;;;;3.67;2.33;;;;;;;-1.03;100.00;102639.72;4990448;28;20042;-73
2024/01/07 10:50:18;;;;;;;5.13;2.17;;;;;;;-1.05;100.00;102649.56;4990129;28;20045;-72
2024/01/07 10:52:50;;;;;;;4.50;2.22;;;;;;;-1.00;100.00;102640.28;4984954;28;20484;-73
2024/01/07 10:55:17;;;;;;;4.10;2.17;;;;;;;-0.90;100.00;102640.19;4988698;28;20026;-75
2024/01/07 10:57:47;;;;;;;6.53;2.42;;;;;;;-0.76;100.00;102638.88;5003054;28;20145;-74
2024/01/07 11:00:19;;;;;;;4.60;2.08;;;;;;;-0.74;100.00;102644.84;4988022;28;20038;-71
2024/01/07 11:03:14;;;;;;;5.93;2.63;;;;;;;-0.72;100.00;102641.06;4987911;28;20041;-73
2024/01/07 11:06:00;;;;;;;4.10;2.10;;;;;;;-0.75;100.00;102643.97;4998086;28;20147;-75
2024/01/07 11:08:54;;;;;;;5.97;1.88;;;;;;;-0.76;100.00;102655.47;4989725;28;20030;-73
2024/01/07 11:11:26;;;;;;;4.85;2.10;;;;;;;-0.74;100.00;102653.56;4993373;28;20067;-72
2024/01/07 11:13:52;;;;;;;5.50;2.30;;;;;;;-0.67;100.00;102651.97;4961764;28;20076;-72
2024/01/07 11:16:41;;;;;;;5.25;2.13;;;;;;;-0.66;100.00;102647.53;4975184;28;20046;-72